Time;durP1;ratioP1;P1;durP2;ratioP2;P2;SDS_P1;SDS_P2;PMS_P1;PMS_P2;Temp;Humidity;BMP_temperature;BMP_pressure;BME280_temperature;BME280_humidity;BME280_pressure;Samples;Min_cycle;Max_cycle;Signal;HPM_P1;HPM_P2
2022/01/18 00:00:05;;;;;;;49.97;7.88;;;4.60;99.90;;;;;;5079395;28;20451;-60
2022/01/18 00:02:31;;;;;;;39.30;6.32;;;4.50;99.90;;;;;;5079234;28;20059;-61
2022/01/18 00:04:56;;;;;;;36.53;6.53;;;4.60;99.90;;;;;;5079976;28;20123;-61
2022/01/18 00:07:22;;;;;;;35.88;6.28;;;4.60;99.90;;;;;;5078783;28;20036;-61
2022/01/18 00:09:49;;;;;;;33.88;5.97;;;4.60;99.90;;;;;;5079532;28;20091;-60
2022/01/18 00:17:53;;;;;;;45.78;6.72;;;4.40;99.90;;;;;;5099871;28;20123;-59
2022/01/18 00:20:28;;;;;;;38.10;7.40;;;4.60;99.90;;;;;;5098514;28;20043;-61
2022/01/18 00:22:54;;;;;;;42.28;6.22;;;4.50;99.90;;;;;;5099077;28;20036;-60
2022/01/18 00:25:20;;;;;;;45.70;7.30;;;4.50;99.90;;;;;;5080592;28;20047;-60
2022/01/18 00:27:45;;;;;;;40.50;7.40;;;4.50;99.90;;;;;;5077300;28;20120;-60
2022/01/18 00:33:13;;;;;;;50.85;6.65;;;4.50;99.90;;;;;;5078286;28;20052;-60
2022/01/18 00:35:25;;;;;;;42.35;7.10;;;4.50;99.90;;;;;;5077808;28;20131;-60
2022/01/18 00:37:54;;;;;;;41.50;6.25;;;4.50;99.90;;;;;;5078408;28;20083;-60
2022/01/18 00:40:20;;;;;;;36.58;6.43;;;4.70;99.90;;;;;;5078767;28;20083;-60
2022/01/18 00:42:46;;;;;;;50.20;6.35;;;4.60;99.90;;;;;;5077167;28;20044;-60
2022/01/18 00:45:12;;;;;;;45.70;7.15;;;4.70;99.90;;;;;;5078350;28;20141;-60
2022/01/18 00:47:38;;;;;;;44.75;7.07;;;4.70;99.90;;;;;;5077545;28;20037;-60
2022/01/18 00:50:04;;;;;;;39.47;6.38;;;4.60;99.90;;;;;;5076561;28;20136;-60
2022/01/18 00:52:39;;;;;;;46.05;6.88;;;4.60;99.90;;;;;;5077632;28;20046;-60
2022/01/18 00:55:05;;;;;;;42.67;6.70;;;4.50;99.90;;;;;;5078150;28;20048;-60
2022/01/18 00:57:31;;;;;;;47.92;6.18;;;4.60;99.90;;;;;;5078307;28;20079;-60
2022/01/18 00:59:57;;;;;;;35.38;5.65;;;4.70;99.90;;;;;;5078207;28;20991;-59
2022/01/18 01:02:23;;;;;;;46.72;6.10;;;4.60;99.90;;;;;;5078487;28;20062;-60
2022/01/18 01:04:49;;;;;;;44.17;6.43;;;4.80;99.90;;;;;;5080652;28;20048;-60
2022/01/18 01:07:20;;;;;;;41.13;6.47;;;4.90;99.90;;;;;;5082237;28;20084;-60
2022/01/18 01:09:47;;;;;;;44.33;6.35;;;4.80;99.90;;;;;;5083145;28;20048;-60
2022/01/18 01:12:14;;;;;;;44.78;5.82;;;4.80;99.90;;;;;;5081781;28;20048;-60
2022/01/18 01:14:41;;;;;;;51.10;6.20;;;4.70;99.90;;;;;;5082618;28;20052;-60
2022/01/18 01:17:23;;;;;;;45.90;6.72;;;4.70;99.90;;;;;;5080806;28;20145;-60
2022/01/18 01:32:09;;;;;;;31.70;5.27;;;4.60;99.90;;;;;;5080848;28;20177;-60
2022/01/18 01:36:45;;;;;;;28.60;4.40;;;4.50;99.90;;;;;;5000003;28;20050;-61
2022/01/18 01:42:05;;;;;;;30.05;4.75;;;4.50;99.90;;;;;;5081574;28;20072;-61
2022/01/18 01:44:43;;;;;;;36.10;4.80;;;4.60;99.90;;;;;;5081837;28;20044;-60
2022/01/18 01:47:12;;;;;;;33.03;5.05;;;4.40;99.90;;;;;;5063555;28;20052;-61
2022/01/18 01:49:39;;;;;;;26.08;4.80;;;4.60;99.90;;;;;;5081389;28;20101;-59
2022/01/18 01:52:07;;;;;;;38.08;4.93;;;4.70;99.90;;;;;;5082140;28;20049;-60
2022/01/18 01:54:32;;;;;;;37.95;4.88;;;4.80;99.90;;;;;;5081366;28;20047;-60
2022/01/18 01:56:58;;;;;;;40.20;6.18;;;4.80;99.90;;;;;;5081816;28;20045;-60
2022/01/18 01:59:24;;;;;;;32.90;4.70;;;4.80;99.90;;;;;;5081333;28;20048;-60
2022/01/18 02:01:49;;;;;;;32.50;5.50;;;5.00;99.90;;;;;;5063500;28;20075;-60
2022/01/18 02:04:16;;;;;;;28.63;5.05;;;4.90;99.90;;;;;;5081417;28;20034;-60
2022/01/18 02:06:42;;;;;;;23.55;4.10;;;5.00;99.90;;;;;;5081361;28;20048;-60
2022/01/18 02:09:08;;;;;;;29.15;4.43;;;5.10;99.90;;;;;;5081876;28;20078;-60
2022/01/18 02:11:34;;;;;;;29.08;4.90;;;5.30;99.90;;;;;;5081054;28;20096;-60
2022/01/18 02:14:00;;;;;;;35.10;5.90;;;5.10;99.90;;;;;;5081392;28;20104;-61
2022/01/18 02:21:55;;;;;;;28.30;4.80;;;5.30;99.90;;;;;;5052092;28;20082;-60
2022/01/18 02:24:22;;;;;;;28.40;4.53;;;5.30;99.90;;;;;;5062778;28;20036;-61
2022/01/18 02:26:48;;;;;;;28.25;3.50;;;5.30;99.90;;;;;;5063358;28;20055;-60
2022/01/18 02:29:15;;;;;;;27.15;4.45;;;5.30;99.90;;;;;;5080546;28;20087;-60
2022/01/18 02:31:41;;;;;;;27.75;3.70;;;5.20;99.90;;;;;;5081015;28;20127;-60
2022/01/18 02:34:12;;;;;;;33.55;5.95;;;5.20;99.90;;;;;;5080927;28;20048;-61
2022/01/18 02:36:38;;;;;;;22.48;3.38;;;5.30;99.90;;;;;;5080919;28;20059;-60
2022/01/18 02:39:05;;;;;;;27.45;4.82;;;5.10;99.90;;;;;;5063451;28;20044;-60
2022/01/18 02:41:32;;;;;;;25.27;3.70;;;5.30;99.90;;;;;;5062596;28;20080;-60
2022/01/18 02:43:59;;;;;;;21.45;3.00;;;5.10;99.90;;;;;;5080922;28;20036;-60
2022/01/18 02:46:27;;;;;;;18.85;3.35;;;5.10;99.90;;;;;;5080698;28;20036;-60
2022/01/18 02:48:54;;;;;;;32.88;5.13;;;5.20;99.90;;;;;;5080411;28;20045;-60
2022/01/18 02:51:20;;;;;;;24.70;5.10;;;5.40;99.90;;;;;;5080574;28;20062;-61
2022/01/18 02:54:00;;;;;;;23.88;4.18;;;5.40;99.90;;;;;;5080709;28;20111;-60
2022/01/18 02:56:28;;;;;;;20.40;3.17;;;5.50;99.90;;;;;;5062780;28;20118;-60
2022/01/18 02:59:01;;;;;;;24.48;3.65;;;5.40;99.90;;;;;;5080276;28;20040;-60
2022/01/18 03:04:12;;;;;;;23.13;4.50;;;5.50;99.90;;;;;;5080218;28;20081;-60
2022/01/18 03:06:38;;;;;;;22.08;3.65;;;5.70;99.90;;;;;;5062149;28;20123;-60
2022/01/18 03:09:03;;;;;;;26.17;3.15;;;5.60;99.90;;;;;;5062542;28;20041;-61
2022/01/18 03:11:29;;;;;;;17.73;3.20;;;5.50;99.90;;;;;;5079961;28;20120;-61
2022/01/18 03:13:55;;;;;;;21.33;2.90;;;5.70;99.90;;;;;;5080418;28;20077;-61
2022/01/18 03:16:21;;;;;;;21.60;3.60;;;5.50;99.90;;;;;;5080132;28;20040;-61
2022/01/18 03:18:46;;;;;;;16.17;2.83;;;5.60;99.90;;;;;;5079937;28;20032;-61
2022/01/18 03:21:12;;;;;;;15.98;2.92;;;5.70;99.90;;;;;;5079930;28;20040;-60
2022/01/18 03:23:37;;;;;;;18.80;2.22;;;5.70;99.90;;;;;;5079534;28;20096;-60
2022/01/18 03:26:14;;;;;;;24.55;4.50;;;5.60;99.90;;;;;;5062627;28;20044;-60
2022/01/18 03:28:40;;;;;;;17.52;2.60;;;5.70;99.90;;;;;;5078796;28;20069;-60
2022/01/18 03:31:05;;;;;;;15.73;2.97;;;5.80;99.90;;;;;;5080237;28;20049;-60
2022/01/18 03:33:31;;;;;;;16.45;2.50;;;5.60;99.90;;;;;;5079809;28;20528;-60
2022/01/18 03:35:57;;;;;;;18.80;2.47;;;5.60;99.90;;;;;;5079733;28;20147;-60
2022/01/18 03:38:31;;;;;;;18.48;2.85;;;5.60;99.90;;;;;;5079962;28;20166;-60
2022/01/18 03:41:03;;;;;;;19.33;2.60;;;5.50;99.90;;;;;;5079513;28;20623;-60
2022/01/18 03:43:30;;;;;;;14.38;2.30;;;5.60;99.90;;;;;;5080253;28;20044;-61
2022/01/18 03:46:01;;;;;;;19.58;2.75;;;5.50;99.90;;;;;;5079141;28;20043;-61
2022/01/18 03:48:33;;;;;;;15.32;3.00;;;5.60;99.90;;;;;;5079455;28;20047;-59
2022/01/18 03:51:00;;;;;;;17.95;2.80;;;5.40;99.90;;;;;;5079016;28;20040;-60
2022/01/18 03:53:26;;;;;;;16.92;2.90;;;5.50;99.90;;;;;;5079211;28;20087;-60
2022/01/18 03:55:53;;;;;;;15.98;2.85;;;5.50;99.90;;;;;;5061711;28;20078;-60
2022/01/18 03:58:19;;;;;;;16.17;1.90;;;5.50;99.90;;;;;;5078899;28;20048;-60
2022/01/18 04:00:45;;;;;;;14.15;2.08;;;5.50;99.90;;;;;;5079867;28;20036;-59
2022/01/18 04:03:11;;;;;;;9.50;2.30;;;5.60;99.90;;;;;;5078611;28;20051;-60
2022/01/18 04:05:37;;;;;;;12.50;2.13;;;5.70;99.90;;;;;;5079424;28;20044;-61
2022/01/18 04:08:03;;;;;;;13.65;2.10;;;5.80;99.90;;;;;;5078657;28;20048;-60
2022/01/18 04:10:29;;;;;;;15.90;2.30;;;5.90;99.90;;;;;;5079158;28;20068;-61
2022/01/18 04:12:56;;;;;;;11.15;2.00;;;5.90;99.90;;;;;;5094462;28;20039;-61
2022/01/18 04:15:22;;;;;;;12.35;2.70;;;6.00;99.90;;;;;;5099232;28;20040;-60
2022/01/18 04:26:03;;;;;;;12.30;2.28;;;6.20;99.90;;;;;;5099262;28;20159;-61
2022/01/18 04:28:41;;;;;;;13.13;2.00;;;6.10;99.90;;;;;;5069339;28;20076;-61
2022/01/18 04:31:08;;;;;;;14.30;2.65;;;6.20;99.90;;;;;;5079273;28;20052;-61
2022/01/18 04:33:35;;;;;;;12.70;1.80;;;6.10;99.90;;;;;;5078535;28;20041;-61
2022/01/18 04:36:02;;;;;;;16.23;1.83;;;6.20;99.90;;;;;;5078799;28;20032;-61
2022/01/18 04:38:28;;;;;;;10.40;1.73;;;6.20;99.90;;;;;;5078295;28;20070;-61
2022/01/18 04:40:59;;;;;;;15.18;3.15;;;6.20;99.90;;;;;;5078891;28;20075;-61
2022/01/18 04:43:40;;;;;;;10.30;1.70;;;6.10;99.90;;;;;;5079144;28;20054;-61
2022/01/18 04:48:51;;;;;;;15.70;3.53;;;6.40;99.90;;;;;;5078435;28;20310;-61
2022/01/18 04:51:17;;;;;;;10.88;2.20;;;6.30;99.90;;;;;;5078160;28;20048;-60
2022/01/18 04:53:51;;;;;;;10.63;1.90;;;6.20;99.90;;;;;;5078443;28;20044;-61
2022/01/18 04:56:19;;;;;;;12.27;1.75;;;6.20;99.90;;;;;;5078825;28;20051;-61
2022/01/18 04:58:45;;;;;;;14.50;2.83;;;6.20;99.90;;;;;;5060269;28;20063;-61
2022/01/18 05:01:12;;;;;;;10.18;1.67;;;6.20;99.90;;;;;;5078848;28;20115;-60
2022/01/18 05:03:38;;;;;;;10.20;1.70;;;6.30;99.90;;;;;;5060312;28;20070;-61
2022/01/18 05:06:11;;;;;;;9.82;2.60;;;6.30;99.90;;;;;;5078472;28;20028;-61
2022/01/18 05:08:38;;;;;;;8.05;3.55;;;6.20;99.90;;;;;;5060327;28;20050;-61
2022/01/18 05:11:06;;;;;;;10.18;1.95;;;6.20;99.90;;;;;;5060698;28;20109;-62
2022/01/18 05:13:53;;;;;;;11.30;1.90;;;6.60;99.90;;;;;;5098870;28;20048;-61
2022/01/18 05:19:12;;;;;;;8.60;1.80;;;6.30;99.90;;;;;;5098362;28;20044;-61
2022/01/18 05:24:26;;;;;;;8.15;1.65;;;6.20;99.90;;;;;;5098238;28;20043;-61
2022/01/18 05:26:54;;;;;;;14.20;2.38;;;6.20;99.90;;;;;;5098503;28;20077;-61
2022/01/18 05:29:20;;;;;;;15.20;1.88;;;6.10;99.90;;;;;;5079833;28;20052;-61
2022/01/18 05:31:46;;;;;;;10.30;1.75;;;6.20;99.90;;;;;;5078144;28;20060;-60
2022/01/18 05:34:13;;;;;;;8.07;1.73;;;6.20;99.90;;;;;;5078323;28;20082;-60
2022/01/18 05:36:39;;;;;;;10.82;1.83;;;6.20;99.90;;;;;;5060064;28;20066;-60
2022/01/18 05:39:05;;;;;;;11.95;2.15;;;6.20;99.90;;;;;;5078755;28;20032;-60
2022/01/18 05:41:32;;;;;;;10.10;2.03;;;6.20;99.90;;;;;;5077830;28;20553;-60
2022/01/18 05:43:57;;;;;;;11.43;1.88;;;6.10;99.90;;;;;;5078229;28;20052;-61
2022/01/18 05:46:24;;;;;;;12.65;1.88;;;6.10;99.90;;;;;;5077546;28;20083;-60
2022/01/18 05:48:50;;;;;;;11.88;2.22;;;6.20;99.90;;;;;;5077852;28;20055;-60
2022/01/18 05:51:16;;;;;;;13.38;2.78;;;6.20;99.90;;;;;;5080025;28;20048;-61
2022/01/18 05:53:42;;;;;;;16.13;2.70;;;6.10;99.90;;;;;;5081454;28;20110;-61
2022/01/18 05:56:11;;;;;;;11.00;2.00;;;6.10;99.90;;;;;;5081734;28;20064;-60
2022/01/18 05:58:43;;;;;;;10.10;2.03;;;6.20;99.90;;;;;;5081240;28;20124;-60
2022/01/18 06:01:08;;;;;;;10.40;1.95;;;6.10;99.90;;;;;;5081721;28;20624;-60
2022/01/18 06:03:49;;;;;;;8.77;1.92;;;6.10;99.90;;;;;;5081148;28;20049;-61
2022/01/18 06:08:58;;;;;;;21.58;3.45;;;6.10;99.90;;;;;;5081834;28;20545;-60
2022/01/18 06:11:24;;;;;;;15.23;2.83;;;5.90;99.90;;;;;;5066428;28;20040;-60
2022/01/18 06:13:50;;;;;;;17.63;2.17;;;5.90;99.90;;;;;;5083732;28;20040;-61
2022/01/18 06:16:15;;;;;;;10.10;2.30;;;5.90;99.90;;;;;;5101230;28;20048;-60
2022/01/18 06:18:41;;;;;;;11.65;2.80;;;6.00;99.90;;;;;;5083287;28;20094;-61
2022/01/18 06:21:07;;;;;;;14.75;2.20;;;6.00;99.90;;;;;;5101153;28;20047;-61
2022/01/18 06:23:33;;;;;;;16.27;2.03;;;6.00;99.90;;;;;;5083329;28;20107;-61
2022/01/18 06:26:02;;;;;;;14.40;2.80;;;6.00;99.90;;;;;;5101579;28;20044;-60
2022/01/18 06:28:28;;;;;;;13.95;2.92;;;6.10;99.90;;;;;;5075724;28;20056;-61
2022/01/18 06:30:54;;;;;;;13.63;2.72;;;5.90;99.90;;;;;;5077902;28;20044;-60
2022/01/18 06:33:20;;;;;;;12.48;2.38;;;6.00;99.90;;;;;;5093067;28;20133;-60
2022/01/18 06:35:45;;;;;;;11.52;2.22;;;5.90;99.90;;;;;;5077773;28;20036;-60
2022/01/18 06:38:12;;;;;;;13.30;2.35;;;6.00;99.90;;;;;;5077536;28;20045;-60
2022/01/18 06:40:38;;;;;;;11.80;2.60;;;6.00;99.90;;;;;;5077749;28;20071;-60
2022/01/18 06:43:04;;;;;;;18.77;3.20;;;5.90;99.90;;;;;;5077668;28;20087;-60
2022/01/18 06:45:30;;;;;;;17.80;2.95;;;5.90;99.90;;;;;;5077335;28;20058;-60
2022/01/18 06:47:56;;;;;;;14.05;2.65;;;5.90;99.90;;;;;;5076610;28;20064;-61
2022/01/18 06:50:21;;;;;;;12.02;3.05;;;5.80;99.90;;;;;;5077004;28;20044;-61
2022/01/18 06:52:47;;;;;;;16.35;2.85;;;5.90;99.90;;;;;;5092824;28;20110;-62
2022/01/18 06:55:13;;;;;;;16.73;3.42;;;6.00;99.90;;;;;;5058909;28;20441;-61
2022/01/18 06:57:39;;;;;;;17.33;2.95;;;5.90;99.90;;;;;;5077135;28;20115;-60
2022/01/18 07:00:06;;;;;;;13.90;3.33;;;5.90;99.90;;;;;;5077337;28;20060;-61
2022/01/18 07:02:33;;;;;;;15.57;2.60;;;5.90;99.90;;;;;;5075812;28;20040;-60
2022/01/18 07:04:59;;;;;;;16.98;4.00;;;6.00;99.90;;;;;;5076580;28;20048;-60
2022/01/18 07:07:25;;;;;;;14.23;4.05;;;5.90;99.90;;;;;;5076649;28;20062;-59
2022/01/18 07:09:51;;;;;;;13.93;2.88;;;5.90;99.90;;;;;;5077271;28;20079;-61
2022/01/18 07:12:18;;;;;;;15.82;3.15;;;5.90;99.90;;;;;;5076614;28;20102;-60
2022/01/18 07:14:44;;;;;;;14.80;2.78;;;5.80;99.90;;;;;;5075372;28;20052;-61
2022/01/18 07:17:10;;;;;;;13.30;2.80;;;5.90;99.90;;;;;;5077385;28;20047;-61
2022/01/18 07:19:37;;;;;;;14.98;3.00;;;5.90;99.90;;;;;;5076155;28;20516;-60
2022/01/18 07:22:04;;;;;;;16.83;3.10;;;5.90;99.90;;;;;;5076230;28;20095;-61
2022/01/18 07:24:43;;;;;;;14.00;4.18;;;5.90;99.90;;;;;;5076593;28;20036;-61
2022/01/18 07:27:10;;;;;;;12.10;3.47;;;5.80;99.90;;;;;;5058477;28;20048;-61
2022/01/18 07:29:36;;;;;;;16.85;3.67;;;5.80;99.90;;;;;;5056487;28;20568;-61
2022/01/18 07:32:03;;;;;;;21.38;4.03;;;5.70;99.90;;;;;;5056413;28;20055;-60
2022/01/18 07:34:31;;;;;;;12.90;3.05;;;5.60;99.90;;;;;;5057098;28;20044;-59
2022/01/18 07:36:57;;;;;;;13.57;3.20;;;5.60;99.90;;;;;;5038633;28;20059;-61
2022/01/18 07:39:22;;;;;;;13.23;3.20;;;5.60;99.90;;;;;;5039153;28;20077;-61
2022/01/18 07:41:48;;;;;;;13.88;3.63;;;5.60;99.90;;;;;;5056268;28;20049;-61
2022/01/18 07:44:14;;;;;;;12.98;3.20;;;5.50;99.90;;;;;;5056432;28;20040;-61
2022/01/18 07:46:39;;;;;;;17.17;3.58;;;5.50;99.90;;;;;;5056402;28;21001;-61
2022/01/18 07:49:05;;;;;;;17.95;3.47;;;5.40;99.90;;;;;;5055846;28;20045;-61
2022/01/18 07:51:31;;;;;;;17.23;3.90;;;5.50;99.90;;;;;;5056735;28;20049;-61
2022/01/18 07:53:56;;;;;;;13.95;3.60;;;5.50;99.90;;;;;;5037990;28;20092;-60
2022/01/18 07:56:22;;;;;;;15.77;3.38;;;5.40;99.90;;;;;;5056656;28;20041;-61
2022/01/18 07:58:48;;;;;;;12.65;3.70;;;5.30;99.90;;;;;;5038034;28;20067;-61
2022/01/18 08:01:13;;;;;;;17.27;4.90;;;5.30;99.90;;;;;;5038354;28;20048;-61
2022/01/18 08:03:39;;;;;;;14.07;3.30;;;5.30;99.90;;;;;;5038304;28;20126;-61
2022/01/18 08:06:05;;;;;;;17.23;4.25;;;5.30;99.90;;;;;;5021433;28;20044;-61
2022/01/18 08:08:32;;;;;;;16.30;3.25;;;5.30;99.90;;;;;;5038038;28;20037;-61
2022/01/18 08:10:58;;;;;;;13.95;3.40;;;5.30;99.90;;;;;;5055741;28;20128;-61
2022/01/18 08:13:28;;;;;;;11.32;3.08;;;5.30;99.90;;;;;;5074124;28;20095;-61
2022/01/18 08:16:10;;;;;;;14.73;3.28;;;5.40;99.90;;;;;;5057420;28;20063;-61
2022/01/18 08:18:36;;;;;;;16.47;3.50;;;5.40;99.90;;;;;;5057681;28;20088;-61
2022/01/18 08:21:01;;;;;;;13.82;3.35;;;5.40;99.90;;;;;;5075698;28;20636;-60
2022/01/18 08:23:27;;;;;;;10.60;2.95;;;5.40;99.90;;;;;;5075690;28;20044;-61
2022/01/18 08:25:53;;;;;;;18.92;3.88;;;5.50;99.90;;;;;;5058176;28;20055;-61
2022/01/18 08:28:18;;;;;;;16.20;3.80;;;5.50;99.90;;;;;;5075380;28;20059;-60
2022/01/18 08:30:44;;;;;;;14.40;3.33;;;5.50;99.90;;;;;;5075750;28;20056;-60
2022/01/18 08:33:10;;;;;;;14.25;3.40;;;5.50;99.90;;;;;;5075353;28;20048;-61
2022/01/18 08:35:37;;;;;;;15.40;3.22;;;5.60;99.90;;;;;;5075738;28;20064;-61
2022/01/18 08:38:03;;;;;;;15.55;4.53;;;5.50;99.90;;;;;;5075380;28;20108;-61
2022/01/18 08:40:29;;;;;;;15.88;3.20;;;5.60;99.90;;;;;;5056833;28;20775;-61
2022/01/18 08:42:55;;;;;;;16.83;4.20;;;5.60;99.90;;;;;;5075092;28;20040;-60
2022/01/18 08:45:21;;;;;;;11.90;3.38;;;5.70;99.90;;;;;;5057195;28;20068;-60
2022/01/18 08:47:48;;;;;;;17.33;3.53;;;5.80;99.90;;;;;;5076053;28;20135;-59
2022/01/18 08:50:17;;;;;;;14.73;3.42;;;5.70;99.90;;;;;;5075029;28;20049;-61
2022/01/18 08:52:42;;;;;;;15.63;4.18;;;5.80;99.90;;;;;;5075200;28;20066;-61
2022/01/18 08:55:09;;;;;;;15.90;3.95;;;5.70;99.90;;;;;;5040239;28;20048;-61
2022/01/18 08:57:34;;;;;;;13.73;3.70;;;5.80;99.90;;;;;;5075370;28;20097;-61
2022/01/18 09:00:00;;;;;;;18.40;4.07;;;5.80;99.90;;;;;;5075654;28;20064;-61
2022/01/18 09:02:26;;;;;;;17.67;4.10;;;5.90;99.90;;;;;;5057138;28;20055;-60
2022/01/18 09:04:51;;;;;;;17.77;4.40;;;6.00;99.90;;;;;;5075945;28;20049;-60
2022/01/18 09:07:19;;;;;;;19.17;4.85;;;6.00;99.90;;;;;;5074516;28;20125;-60
2022/01/18 09:09:48;;;;;;;16.20;4.80;;;6.00;99.90;;;;;;5075470;28;20057;-60
2022/01/18 09:12:17;;;;;;;17.40;4.63;;;5.90;99.90;;;;;;5075013;28;20074;-60
2022/01/18 09:14:43;;;;;;;18.92;5.10;;;6.00;99.90;;;;;;5074927;28;20052;-60
2022/01/18 09:17:09;;;;;;;22.90;5.00;;;6.00;99.90;;;;;;5075350;28;20056;-60
2022/01/18 09:19:35;;;;;;;18.38;4.95;;;5.90;99.90;;;;;;5056366;28;20071;-61
2022/01/18 09:22:03;;;;;;;16.90;5.10;;;6.10;99.90;;;;;;5075736;28;20041;-60
2022/01/18 09:24:29;;;;;;;14.15;5.07;;;6.10;99.90;;;;;;5074940;28;20044;-60
2022/01/18 09:26:55;;;;;;;17.25;4.55;;;6.10;99.90;;;;;;5078837;28;20063;-61
2022/01/18 09:29:21;;;;;;;18.65;4.50;;;6.10;99.90;;;;;;5078750;28;20044;-62
2022/01/18 09:31:47;;;;;;;17.80;5.57;;;6.10;99.90;;;;;;5078617;28;20601;-61
2022/01/18 09:34:13;;;;;;;21.35;6.28;;;6.20;99.90;;;;;;5079004;28;20082;-60
2022/01/18 09:36:38;;;;;;;20.75;6.25;;;6.20;99.90;;;;;;5078754;28;20749;-61
2022/01/18 09:39:04;;;;;;;14.93;4.78;;;6.20;99.90;;;;;;5044893;28;20060;-61
2022/01/18 09:41:37;;;;;;;14.40;5.43;;;6.30;99.90;;;;;;5078748;28;20045;-61
2022/01/18 09:44:03;;;;;;;23.73;4.82;;;6.30;99.90;;;;;;5078400;28;20052;-63
2022/01/18 09:46:29;;;;;;;17.17;4.70;;;6.30;99.90;;;;;;5060784;28;20113;-61
2022/01/18 09:48:55;;;;;;;19.30;5.10;;;6.40;99.90;;;;;;5078551;28;20040;-60
2022/01/18 09:51:23;;;;;;;14.57;5.32;;;6.40;99.90;;;;;;5078620;28;20044;-60
2022/01/18 09:53:50;;;;;;;17.55;6.60;;;6.50;99.90;;;;;;5043507;28;20045;-60
2022/01/18 09:56:16;;;;;;;17.40;5.95;;;6.40;99.90;;;;;;5078657;28;20452;-61
2022/01/18 09:58:43;;;;;;;15.77;6.15;;;6.40;99.90;;;;;;5060314;28;20055;-60
2022/01/18 10:01:09;;;;;;;17.65;6.43;;;6.50;99.90;;;;;;5060839;28;20094;-60
2022/01/18 10:03:38;;;;;;;19.17;5.95;;;6.50;99.90;;;;;;5078161;28;20045;-61
2022/01/18 10:06:05;;;;;;;16.45;4.22;;;6.40;99.90;;;;;;5060220;28;20048;-61
2022/01/18 10:08:31;;;;;;;17.17;4.50;;;6.50;99.90;;;;;;5078233;28;20096;-61
2022/01/18 10:11:07;;;;;;;12.15;4.43;;;6.50;99.90;;;;;;5078034;28;20162;-61
2022/01/18 10:13:34;;;;;;;17.90;5.22;;;6.50;99.90;;;;;;5078514;28;20105;-61
2022/01/18 10:16:15;;;;;;;18.92;5.45;;;6.50;99.90;;;;;;5060985;28;20085;-61
2022/01/18 10:18:48;;;;;;;17.48;5.43;;;6.50;99.90;;;;;;5046141;28;20040;-61
2022/01/18 10:21:44;;;;;;;18.35;5.55;;;6.40;99.90;;;;;;5081353;28;20086;-61
2022/01/18 10:24:16;;;;;;;15.68;5.60;;;6.50;99.90;;;;;;5081041;28;20036;-62
2022/01/18 10:26:44;;;;;;;16.55;5.30;;;6.50;99.90;;;;;;5081478;28;20062;-61
2022/01/18 10:29:12;;;;;;;11.98;4.68;;;6.60;99.90;;;;;;5070228;28;20102;-60
2022/01/18 10:31:54;;;;;;;14.85;5.10;;;6.50;99.90;;;;;;5081190;28;20041;-59
2022/01/18 10:37:12;;;;;;;13.13;4.90;;;6.50;99.90;;;;;;5080334;28;20182;-61
2022/01/18 10:39:46;;;;;;;15.23;4.72;;;6.50;99.90;;;;;;5081213;28;20044;-60
2022/01/18 10:42:18;;;;;;;16.42;5.18;;;6.50;99.90;;;;;;5080381;28;20090;-61
2022/01/18 10:44:57;;;;;;;13.88;4.55;;;6.60;99.90;;;;;;5080459;28;20049;-61
2022/01/18 10:47:24;;;;;;;18.77;4.75;;;6.60;99.90;;;;;;5080167;28;20045;-61
2022/01/18 10:49:50;;;;;;;17.60;5.22;;;6.50;99.90;;;;;;5080075;28;20051;-60
2022/01/18 10:52:18;;;;;;;12.98;4.57;;;6.60;99.90;;;;;;5081289;28;20072;-60
2022/01/18 10:54:49;;;;;;;14.65;5.47;;;6.70;99.90;;;;;;5080570;28;20124;-60
2022/01/18 10:57:38;;;;;;;18.98;5.45;;;6.60;99.90;;;;;;5080304;28;20053;-60
2022/01/18 11:00:16;;;;;;;15.73;4.53;;;6.80;99.90;;;;;;5079667;28;20047;-60
2022/01/18 11:02:44;;;;;;;16.92;5.03;;;6.70;99.90;;;;;;5080577;28;20044;-60
2022/01/18 11:05:17;;;;;;;17.77;4.28;;;6.70;99.90;;;;;;5080807;28;20074;-60
2022/01/18 11:07:44;;;;;;;12.85;3.90;;;6.80;99.90;;;;;;5078965;28;20056;-60
2022/01/18 11:10:12;;;;;;;13.02;3.28;;;6.70;99.90;;;;;;5080281;28;20053;-61
2022/01/18 11:12:48;;;;;;;16.13;4.30;;;6.70;99.90;;;;;;5080165;28;20732;-60
2022/01/18 11:15:19;;;;;;;14.68;3.40;;;6.70;99.90;;;;;;5080289;28;20052;-60
2022/01/18 11:17:50;;;;;;;11.68;3.67;;;6.70;99.90;;;;;;5079783;28;20109;-61
2022/01/18 11:20:19;;;;;;;13.85;3.38;;;6.70;99.90;;;;;;5079656;28;20044;-61
2022/01/18 11:22:48;;;;;;;15.27;3.42;;;6.80;99.90;;;;;;5079872;28;20064;-60
2022/01/18 11:25:15;;;;;;;9.57;3.30;;;6.80;99.90;;;;;;5080060;28;20068;-61
2022/01/18 11:27:46;;;;;;;12.27;3.80;;;6.80;99.90;;;;;;5078560;28;20041;-60
2022/01/18 11:30:13;;;;;;;12.90;3.40;;;6.80;99.90;;;;;;5080289;28;20079;-60
2022/01/18 11:32:38;;;;;;;13.48;3.78;;;6.80;99.90;;;;;;5079704;28;20045;-60
2022/01/18 11:35:19;;;;;;;9.55;3.80;;;6.80;99.90;;;;;;5062362;28;20175;-60
2022/01/18 11:37:54;;;;;;;20.85;4.15;;;6.80;99.90;;;;;;5079888;28;20152;-60
2022/01/18 11:40:20;;;;;;;13.75;4.15;;;6.80;99.90;;;;;;5079460;28;20048;-60
2022/01/18 11:42:50;;;;;;;11.35;3.90;;;6.80;99.90;;;;;;5062193;28;20043;-60
2022/01/18 11:45:25;;;;;;;14.98;5.22;;;6.70;99.90;;;;;;5079322;28;20104;-60
2022/01/18 11:48:18;;;;;;;11.43;4.18;;;6.70;99.90;;;;;;5079321;28;20055;-59
2022/01/18 11:50:50;;;;;;;13.98;4.30;;;6.60;99.90;;;;;;5077969;28;20056;-60
2022/01/18 11:53:26;;;;;;;17.58;4.53;;;6.80;99.90;;;;;;5079605;28;20095;-60
2022/01/18 11:56:02;;;;;;;19.58;5.28;;;6.80;99.90;;;;;;5061641;28;20536;-60
2022/01/18 11:58:29;;;;;;;14.63;4.57;;;6.70;99.90;;;;;;5060991;28;20059;-60
2022/01/18 12:01:01;;;;;;;12.15;4.03;;;6.60;99.90;;;;;;5079542;28;20044;-61
2022/01/18 12:03:28;;;;;;;16.10;4.40;;;6.60;99.90;;;;;;5079408;28;20036;-60
2022/01/18 12:05:57;;;;;;;12.73;4.53;;;6.60;99.90;;;;;;5078912;28;20116;-60
2022/01/18 12:08:33;;;;;;;14.05;5.13;;;6.60;99.90;;;;;;5079518;28;20041;-60
2022/01/18 12:10:59;;;;;;;16.92;4.55;;;6.60;99.90;;;;;;5078959;28;20084;-61
2022/01/18 12:13:35;;;;;;;16.25;5.35;;;6.60;99.90;;;;;;5079893;28;20056;-60
2022/01/18 12:16:05;;;;;;;16.40;5.68;;;6.70;99.90;;;;;;5074536;28;20044;-60
2022/01/18 12:18:32;;;;;;;18.75;5.78;;;6.60;99.90;;;;;;5059188;28;20040;-60
2022/01/18 12:21:15;;;;;;;20.00;5.55;;;6.60;99.90;;;;;;5042464;28;20068;-60
2022/01/18 12:23:43;;;;;;;19.17;5.70;;;6.60;99.90;;;;;;5059935;28;20070;-61
2022/01/18 12:26:28;;;;;;;13.45;5.78;;;6.60;99.90;;;;;;5079499;28;20054;-61
2022/01/18 12:34:29;;;;;;;20.23;6.10;;;6.70;99.90;;;;;;5000471;28;20482;-60
2022/01/18 12:39:50;;;;;;;16.27;5.20;;;6.80;99.90;;;;;;5059109;28;20098;-61
2022/01/18 12:45:16;;;;;;;17.02;5.68;;;6.90;99.90;;;;;;5019796;28;20931;-60
2022/01/18 12:47:59;;;;;;;17.33;6.85;;;6.90;99.90;;;;;;5059414;28;20049;-60
2022/01/18 12:50:34;;;;;;;15.98;5.72;;;6.90;99.90;;;;;;5058406;28;20044;-61
2022/01/18 12:53:03;;;;;;;16.27;5.95;;;6.90;99.90;;;;;;5040316;28;20037;-61
2022/01/18 12:55:32;;;;;;;19.45;6.93;;;6.90;99.90;;;;;;5058892;28;20055;-60
2022/01/18 12:58:02;;;;;;;19.52;6.32;;;7.00;99.90;;;;;;5058377;28;20052;-60
2022/01/18 13:00:28;;;;;;;20.40;6.95;;;6.80;99.90;;;;;;5058967;28;20041;-60
2022/01/18 13:02:59;;;;;;;23.45;7.97;;;6.90;99.90;;;;;;5057925;28;20053;-60
2022/01/18 13:05:37;;;;;;;17.65;7.22;;;6.80;99.90;;;;;;5058823;28;20045;-60
2022/01/18 13:08:04;;;;;;;20.33;7.10;;;6.80;99.90;;;;;;5058498;28;20041;-60
2022/01/18 13:10:41;;;;;;;21.75;7.82;;;6.90;99.90;;;;;;5058249;28;20079;-61
2022/01/18 13:13:09;;;;;;;17.92;6.18;;;6.90;99.90;;;;;;5075288;28;20083;-61
2022/01/18 13:15:46;;;;;;;17.85;7.28;;;6.90;99.90;;;;;;5080492;28;20147;-60
2022/01/18 13:23:52;;;;;;;21.35;7.45;;;6.80;99.90;;;;;;5098359;28;19946;-60
2022/01/18 13:26:34;;;;;;;20.20;7.28;;;6.80;99.90;;;;;;5099356;28;20044;-60
2022/01/18 13:29:21;;;;;;;18.10;6.53;;;6.90;99.90;;;;;;5066286;28;20053;-60
2022/01/18 13:32:05;;;;;;;20.00;6.45;;;6.80;99.90;;;;;;5078342;28;20048;-58
2022/01/18 13:34:36;;;;;;;17.17;6.90;;;6.90;99.90;;;;;;5078735;28;20052;-59
2022/01/18 13:37:04;;;;;;;21.42;7.97;;;6.80;99.90;;;;;;5076455;28;20048;-58
2022/01/18 13:39:44;;;;;;;16.08;6.55;;;6.80;99.90;;;;;;5076739;28;20105;-60
2022/01/18 13:42:11;;;;;;;18.05;6.72;;;6.80;99.90;;;;;;5077946;28;20045;-60
2022/01/18 13:44:37;;;;;;;18.50;6.60;;;6.80;99.90;;;;;;5077898;28;20045;-60
2022/01/18 13:47:17;;;;;;;17.80;7.05;;;6.80;99.90;;;;;;5078580;28;20048;-60
2022/01/18 13:49:43;;;;;;;19.02;6.63;;;6.80;99.90;;;;;;5077698;28;20041;-60
2022/01/18 13:52:12;;;;;;;21.10;7.15;;;6.80;99.90;;;;;;5078700;28;20036;-60
2022/01/18 13:54:51;;;;;;;19.65;6.35;;;6.80;99.90;;;;;;5077788;28;20060;-61
2022/01/18 13:57:19;;;;;;;17.70;6.75;;;6.80;99.90;;;;;;5078151;28;20039;-61
2022/01/18 13:59:46;;;;;;;19.95;6.43;;;6.60;99.90;;;;;;5078077;28;20051;-60
2022/01/18 14:02:13;;;;;;;18.38;6.85;;;6.70;99.90;;;;;;5077820;28;20064;-59
2022/01/18 14:04:39;;;;;;;15.60;6.22;;;6.70;99.90;;;;;;5078419;28;20045;-60
2022/01/18 14:07:06;;;;;;;24.30;6.90;;;6.70;99.90;;;;;;5077880;28;20123;-60